sensor_id;sensor_type;location;lat;lon;timestamp;temperature;humidity
1165;DHT22;571;50.930;6.926;2023-03-07T03:47:43;6.30;99.50
1165;DHT22;571;50.930;6.926;2023-03-07T03:50:12;6.30;99.80
1165;DHT22;571;50.930;6.926;2023-03-07T03:52:39;6.30;99.80
1165;DHT22;571;50.930;6.926;2023-03-07T03:55:06;6.30;99.70
1165;DHT22;571;50.930;6.926;2023-03-07T03:57:33;6.20;99.80
1165;DHT22;571;50.930;6.926;2023-03-07T03:59:59;6.20;99.90
1165;DHT22;571;50.930;6.926;2023-03-07T04:02:29;6.20;99.90
1165;DHT22;571;50.930;6.926;2023-03-07T04:04:58;6.20;99.90
1165;DHT22;571;50.930;6.926;2023-03-07T04:07:25;6.20;99.90
1165;DHT22;571;50.930;6.926;2023-03-07T04:09:54;6.20;99.90
1165;DHT22;571;50.930;6.926;2023-03-07T04:12:21;6.10;99.90
1165;DHT22;571;50.930;6.926;2023-03-07T04:14:47;6.10;99.90
1165;DHT22;571;50.930;6.926;2023-03-07T04:17:14;6.10;99.90
1165;DHT22;571;50.930;6.926;2023-03-07T04:19:41;6.10;99.90
1165;DHT22;571;50.930;6.926;2023-03-07T04:22:09;6.10;99.90
1165;DHT22;571;50.930;6.926;2023-03-07T04:24:35;6.20;99.90
1165;DHT22;571;50.930;6.926;2023-03-07T04:27:02;6.20;99.70
1165;DHT22;571;50.930;6.926;2023-03-07T04:29:29;6.20;99.80
1165;DHT22;571;50.930;6.926;2023-03-07T04:31:56;6.20;99.90
1165;DHT22;571;50.930;6.926;2023-03-07T04:34:22;6.30;99.80
1165;DHT22;571;50.930;6.926;2023-03-07T04:36:49;6.30;99.70
1165;DHT22;571;50.930;6.926;2023-03-07T04:39:17;6.30;99.60
1165;DHT22;571;50.930;6.926;2023-03-07T04:41:44;6.30;99.50
1165;DHT22;571;50.930;6.926;2023-03-07T04:44:11;6.30;99.60
1165;DHT22;571;50.930;6.926;2023-03-07T04:46:38;6.20;99.70
1165;DHT22;571;50.930;6.926;2023-03-07T04:49:05;6.20;99.60
1165;DHT22;571;50.930;6.926;2023-03-07T04:51:31;6.30;99.70
1165;DHT22;571;50.930;6.926;2023-03-07T04:53:58;6.20;99.70
1165;DHT22;571;50.930;6.926;2023-03-07T04:56:26;6.20;99.90
1165;DHT22;571;50.930;6.926;2023-03-07T04:58:53;6.10;99.90
1165;DHT22;571;50.930;6.926;2023-03-07T05:01:19;6.20;99.90
1165;DHT22;571;50.930;6.926;2023-03-07T05:03:46;6.20;99.90
1165;DHT22;571;50.930;6.926;2023-03-07T05:06:14;6.30;99.90
1165;DHT22;571;50.930;6.926;2023-03-07T05:08:41;6.30;99.90
1165;DHT22;571;50.930;6.926;2023-03-07T05:11:08;6.30;99.90
1165;DHT22;571;50.930;6.926;2023-03-07T05:13:36;6.30;99.90
1165;DHT22;571;50.930;6.926;2023-03-07T05:16:03;6.30;99.90
1165;DHT22;571;50.930;6.926;2023-03-07T05:18:30;6.30;99.90
1165;DHT22;571;50.930;6.926;2023-03-07T05:20:56;6.20;99.90
1165;DHT22;571;50.930;6.926;2023-03-07T05:23:23;6.10;99.90
1165;DHT22;571;50.930;6.926;2023-03-07T05:25:50;6.20;99.90
1165;DHT22;571;50.930;6.926;2023-03-07T05:28:17;6.20;99.90
1165;DHT22;571;50.930;6.926;2023-03-07T05:30:45;6.20;99.90
1165;DHT22;571;50.930;6.926;2023-03-07T05:33:12;6.20;99.90
1165;DHT22;571;50.930;6.926;2023-03-07T05:35:39;6.30;99.90
1165;DHT22;571;50.930;6.926;2023-03-07T05:38:06;6.20;99.90
1165;DHT22;571;50.930;6.926;2023-03-07T05:40:32;6.10;99.90
1165;DHT22;571;50.930;6.926;2023-03-07T05:42:59;6.00;99.90
1165;DHT22;571;50.930;6.926;2023-03-07T05:45:26;6.00;99.90
1165;DHT22;571;50.930;6.926;2023-03-07T05:47:54;6.10;99.90
1165;DHT22;571;50.930;6.926;2023-03-07T05:50:21;6.20;99.90
1165;DHT22;571;50.930;6.926;2023-03-07T05:52:48;6.30;99.90
1165;DHT22;571;50.930;6.926;2023-03-07T05:55:15;6.20;99.90
1165;DHT22;571;50.930;6.926;2023-03-07T05:57:41;6.20;99.90
1165;DHT22;571;50.930;6.926;2023-03-07T06:00:09;6.20;99.90
1165;DHT22;571;50.930;6.926;2023-03-07T06:02:36;6.20;99.90
1165;DHT22;571;50.930;6.926;2023-03-07T06:05:05;6.30;99.90
1165;DHT22;571;50.930;6.926;2023-03-07T06:07:32;6.40;99.90
1165;DHT22;571;50.930;6.926;2023-03-07T06:09:58;6.30;99.90
1165;DHT22;571;50.930;6.926;2023-03-07T06:12:25;6.40;99.90
1165;DHT22;571;50.930;6.926;2023-03-07T06:14:52;6.40;99.90
1165;DHT22;571;50.930;6.926;2023-03-07T06:17:18;6.30;99.90
1165;DHT22;571;50.930;6.926;2023-03-07T06:19:45;6.30;99.90
1165;DHT22;571;50.930;6.926;2023-03-07T06:22:13;6.30;99.90
1165;DHT22;571;50.930;6.926;2023-03-07T06:24:40;6.30;99.90
1165;DHT22;571;50.930;6.926;2023-03-07T06:27:08;6.30;99.90
1165;DHT22;571;50.930;6.926;2023-03-07T06:29:35;6.20;99.90
1165;DHT22;571;50.930;6.926;2023-03-07T06:32:02;6.20;99.90
1165;DHT22;571;50.930;6.926;2023-03-07T06:34:30;6.30;99.90
1165;DHT22;571;50.930;6.926;2023-03-07T06:36:57;6.30;99.90
1165;DHT22;571;50.930;6.926;2023-03-07T06:39:26;6.30;99.90
1165;DHT22;571;50.930;6.926;2023-03-07T06:41:53;6.40;99.90
1165;DHT22;571;50.930;6.926;2023-03-07T06:44:20;6.30;99.90
1165;DHT22;571;50.930;6.926;2023-03-07T06:46:46;6.30;99.90
1165;DHT22;571;50.930;6.926;2023-03-07T06:49:14;6.30;99.90
1165;DHT22;571;50.930;6.926;2023-03-07T06:51:47;6.40;99.90
1165;DHT22;571;50.930;6.926;2023-03-07T06:54:18;6.40;99.90
1165;DHT22;571;50.930;6.926;2023-03-07T06:56:49;6.50;99.90
1165;DHT22;571;50.930;6.926;2023-03-07T06:59:27;6.40;99.90
1165;DHT22;571;50.930;6.926;2023-03-07T07:01:54;6.50;99.90
1165;DHT22;571;50.930;6.926;2023-03-07T07:04:43;6.40;99.90
1165;DHT22;571;50.930;6.926;2023-03-07T07:07:15;6.50;99.90
1165;DHT22;571;50.930;6.926;2023-03-07T07:09:42;6.50;99.90
1165;DHT22;571;50.930;6.926;2023-03-07T07:12:10;6.50;99.90
1165;DHT22;571;50.930;6.926;2023-03-07T07:14:37;6.50;99.90
1165;DHT22;571;50.930;6.926;2023-03-07T07:17:04;6.50;99.90
1165;DHT22;571;50.930;6.926;2023-03-07T07:19:30;6.60;99.90
1165;DHT22;571;50.930;6.926;2023-03-07T07:21:57;6.70;99.80
1165;DHT22;571;50.930;6.926;2023-03-07T07:24:24;6.70;99.50
1165;DHT22;571;50.930;6.926;2023-03-07T07:26:51;6.70;99.30
1165;DHT22;571;50.930;6.926;2023-03-07T07:29:19;6.70;99.20
1165;DHT22;571;50.930;6.926;2023-03-07T07:31:46;6.70;99.20
1165;DHT22;571;50.930;6.926;2023-03-07T07:34:13;6.80;99.10
1165;DHT22;571;50.930;6.926;2023-03-07T07:36:40;6.70;99.50
1165;DHT22;571;50.930;6.926;2023-03-07T07:39:07;6.70;99.10
1165;DHT22;571;50.930;6.926;2023-03-07T07:41:34;6.70;98.80
1165;DHT22;571;50.930;6.926;2023-03-07T07:44:01;6.70;99.00
1165;DHT22;571;50.930;6.926;2023-03-07T07:46:29;6.60;99.00
1165;DHT22;571;50.930;6.926;2023-03-07T07:48:56;6.60;98.80
1165;DHT22;571;50.930;6.926;2023-03-07T07:51:23;6.60;99.00
1165;DHT22;571;50.930;6.926;2023-03-07T07:53:49;6.70;98.70
1165;DHT22;571;50.930;6.926;2023-03-07T07:56:16;6.70;98.70
1165;DHT22;571;50.930;6.926;2023-03-07T07:58:43;6.70;99.00
1165;DHT22;571;50.930;6.926;2023-03-07T08:01:14;6.70;98.70
1165;DHT22;571;50.930;6.926;2023-03-07T08:03:42;6.70;98.50
1165;DHT22;571;50.930;6.926;2023-03-07T08:06:09;6.70;98.40
1165;DHT22;571;50.930;6.926;2023-03-07T08:08:36;6.70;98.50
1165;DHT22;571;50.930;6.926;2023-03-07T08:11:03;6.70;98.60
1165;DHT22;571;50.930;6.926;2023-03-07T08:13:30;6.70;98.60
1165;DHT22;571;50.930;6.926;2023-03-07T08:15:57;6.70;98.60
1165;DHT22;571;50.930;6.926;2023-03-07T08:18:24;6.70;98.90
1165;DHT22;571;50.930;6.926;2023-03-07T08:20:51;6.70;98.60
1165;DHT22;571;50.930;6.926;2023-03-07T08:23:18;6.80;98.50
1165;DHT22;571;50.930;6.926;2023-03-07T08:25:45;6.70;98.60
1165;DHT22;571;50.930;6.926;2023-03-07T08:28:11;6.70;98.60
1165;DHT22;571;50.930;6.926;2023-03-07T08:30:38;6.80;98.50
1165;DHT22;571;50.930;6.926;2023-03-07T08:33:05;6.80;98.40
1165;DHT22;571;50.930;6.926;2023-03-07T08:35:31;6.80;98.50
1165;DHT22;571;50.930;6.926;2023-03-07T08:38:00;6.80;98.50
1165;DHT22;571;50.930;6.926;2023-03-07T08:40:28;6.80;98.50
1165;DHT22;571;50.930;6.926;2023-03-07T08:42:56;6.80;98.50
1165;DHT22;571;50.930;6.926;2023-03-07T08:45:23;6.90;98.50
1165;DHT22;571;50.930;6.926;2023-03-07T08:47:51;6.90;98.60
1165;DHT22;571;50.930;6.926;2023-03-07T08:50:19;6.80;98.50
1165;DHT22;571;50.930;6.926;2023-03-07T08:52:45;6.90;98.40
1165;DHT22;571;50.930;6.926;2023-03-07T08:55:13;7.00;98.30
1165;DHT22;571;50.930;6.926;2023-03-07T08:57:41;7.00;98.10
1165;DHT22;571;50.930;6.926;2023-03-07T09:00:10;6.90;98.30
1165;DHT22;571;50.930;6.926;2023-03-07T09:02:37;7.00;98.00
1165;DHT22;571;50.930;6.926;2023-03-07T09:05:04;7.00;98.00
1165;DHT22;571;50.930;6.926;2023-03-07T09:07:31;7.00;98.00
1165;DHT22;571;50.930;6.926;2023-03-07T09:09:58;7.00;98.10
1165;DHT22;571;50.930;6.926;2023-03-07T09:12:26;7.00;98.00
1165;DHT22;571;50.930;6.926;2023-03-07T09:14:53;7.00;98.00
1165;DHT22;571;50.930;6.926;2023-03-07T09:17:19;7.00;98.10
1165;DHT22;571;50.930;6.926;2023-03-07T09:19:46;7.00;98.10
1165;DHT22;571;50.930;6.926;2023-03-07T09:22:15;7.10;98.10
1165;DHT22;571;50.930;6.926;2023-03-07T09:24:41;7.00;98.40
1165;DHT22;571;50.930;6.926;2023-03-07T09:27:08;7.10;98.30
1165;DHT22;571;50.930;6.926;2023-03-07T09:29:37;7.30;97.60
1165;DHT22;571;50.930;6.926;2023-03-07T09:32:04;7.20;97.40
1165;DHT22;571;50.930;6.926;2023-03-07T09:34:31;7.20;97.50
1165;DHT22;571;50.930;6.926;2023-03-07T09:36:57;7.20;97.60
1165;DHT22;571;50.930;6.926;2023-03-07T09:39:24;7.20;97.70
1165;DHT22;571;50.930;6.926;2023-03-07T09:41:59;7.30;97.50
1165;DHT22;571;50.930;6.926;2023-03-07T09:44:45;7.30;97.40
1165;DHT22;571;50.930;6.926;2023-03-07T09:50:27;7.40;97.20
1165;DHT22;571;50.930;6.926;2023-03-07T09:53:00;7.40;97.20
1165;DHT22;571;50.930;6.926;2023-03-07T09:55:29;7.40;97.30
1165;DHT22;571;50.930;6.926;2023-03-07T09:57:59;7.40;97.40
1165;DHT22;571;50.930;6.926;2023-03-07T10:00:30;7.40;97.50
1165;DHT22;571;50.930;6.926;2023-03-07T10:03:07;7.40;97.60
1165;DHT22;571;50.930;6.926;2023-03-07T10:05:39;7.40;97.60
1165;DHT22;571;50.930;6.926;2023-03-07T10:08:12;7.40;97.70
1165;DHT22;571;50.930;6.926;2023-03-07T10:10:41;7.40;98.10
1165;DHT22;571;50.930;6.926;2023-03-07T10:13:19;7.30;98.10
1165;DHT22;571;50.930;6.926;2023-03-07T10:15:50;7.40;98.30
1165;DHT22;571;50.930;6.926;2023-03-07T10:18:49;7.40;98.40
1165;DHT22;571;50.930;6.926;2023-03-07T10:21:24;7.50;98.20
1165;DHT22;571;50.930;6.926;2023-03-07T10:24:12;7.60;98.30
1165;DHT22;571;50.930;6.926;2023-03-07T10:26:50;7.50;98.60
1165;DHT22;571;50.930;6.926;2023-03-07T10:29:23;7.40;99.00
1165;DHT22;571;50.930;6.926;2023-03-07T10:31:54;7.40;99.10
1165;DHT22;571;50.930;6.926;2023-03-07T10:34:24;7.50;99.20
1165;DHT22;571;50.930;6.926;2023-03-07T10:36:54;7.30;99.30
1165;DHT22;571;50.930;6.926;2023-03-07T10:39:27;7.30;99.50
1165;DHT22;571;50.930;6.926;2023-03-07T10:41:57;7.20;99.90
1165;DHT22;571;50.930;6.926;2023-03-07T10:44:26;7.20;99.90
1165;DHT22;571;50.930;6.926;2023-03-07T10:46:57;7.30;99.90
1165;DHT22;571;50.930;6.926;2023-03-07T10:49:27;7.20;99.90
1165;DHT22;571;50.930;6.926;2023-03-07T10:51:58;7.30;99.90
1165;DHT22;571;50.930;6.926;2023-03-07T10:54:30;7.30;99.90
1165;DHT22;571;50.930;6.926;2023-03-07T10:57:05;7.40;99.90
1165;DHT22;571;50.930;6.926;2023-03-07T10:59:33;7.20;99.90
1165;DHT22;571;50.930;6.926;2023-03-07T11:02:03;7.30;99.90
1165;DHT22;571;50.930;6.926;2023-03-07T11:04:45;7.40;99.90
1165;DHT22;571;50.930;6.926;2023-03-07T11:07:26;7.40;99.90
1165;DHT22;571;50.930;6.926;2023-03-07T11:09:58;7.30;99.90
1165;DHT22;571;50.930;6.926;2023-03-07T11:12:27;7.40;99.70
1165;DHT22;571;50.930;6.926;2023-03-07T11:14:56;7.30;99.70
1165;DHT22;571;50.930;6.926;2023-03-07T11:17:26;7.40;99.90
1165;DHT22;571;50.930;6.926;2023-03-07T11:19:55;7.40;99.90
1165;DHT22;571;50.930;6.926;2023-03-07T11:22:25;7.40;99.90
1165;DHT22;571;50.930;6.926;2023-03-07T11:24:59;7.50;99.90
1165;DHT22;571;50.930;6.926;2023-03-07T11:27:33;7.50;99.90
1165;DHT22;571;50.930;6.926;2023-03-07T11:30:19;7.50;99.90
1165;DHT22;571;50.930;6.926;2023-03-07T11:32:59;7.50;99.90
1165;DHT22;571;50.930;6.926;2023-03-07T11:35:39;7.50;99.90
1165;DHT22;571;50.930;6.926;2023-03-07T11:38:13;7.60;99.90
1165;DHT22;571;50.930;6.926;2023-03-07T11:40:50;7.60;99.90
1165;DHT22;571;50.930;6.926;2023-03-07T11:43:20;7.50;99.90
1165;DHT22;571;50.930;6.926;2023-03-07T11:45:51;7.60;99.90
1165;DHT22;571;50.930;6.926;2023-03-07T11:48:34;7.70;99.90
1165;DHT22;571;50.930;6.926;2023-03-07T11:51:17;7.70;99.90
1165;DHT22;571;50.930;6.926;2023-03-07T11:53:54;7.60;99.90
1165;DHT22;571;50.930;6.926;2023-03-07T11:56:26;7.60;99.90
1165;DHT22;571;50.930;6.926;2023-03-07T11:59:27;7.50;99.90
1165;DHT22;571;50.930;6.926;2023-03-07T12:02:00;7.60;99.90
1165;DHT22;571;50.930;6.926;2023-03-07T12:04:57;7.50;99.90
1165;DHT22;571;50.930;6.926;2023-03-07T12:07:46;7.60;99.90
1165;DHT22;571;50.930;6.926;2023-03-07T12:10:28;7.60;99.90
1165;DHT22;571;50.930;6.926;2023-03-07T12:13:08;7.60;99.90
1165;DHT22;571;50.930;6.926;2023-03-07T12:15:40;7.30;99.90
1165;DHT22;571;50.930;6.926;2023-03-07T12:18:28;7.20;99.90
1165;DHT22;571;50.930;6.926;2023-03-07T12:21:13;7.20;99.90
1165;DHT22;571;50.930;6.926;2023-03-07T12:23:46;7.30;99.90
1165;DHT22;571;50.930;6.926;2023-03-07T12:26:17;7.10;99.90
1165;DHT22;571;50.930;6.926;2023-03-07T12:28:49;7.00;99.90
1165;DHT22;571;50.930;6.926;2023-03-07T12:31:21;6.80;99.90
1165;DHT22;571;50.930;6.926;2023-03-07T12:33:55;6.90;99.90
1165;DHT22;571;50.930;6.926;2023-03-07T12:36:31;6.80;99.90
1165;DHT22;571;50.930;6.926;2023-03-07T12:39:04;6.60;99.90
1165;DHT22;571;50.930;6.926;2023-03-07T12:41:42;6.50;99.90
1165;DHT22;571;50.930;6.926;2023-03-07T12:44:14;6.60;99.90
1165;DHT22;571;50.930;6.926;2023-03-07T12:46:46;6.50;99.90
1165;DHT22;571;50.930;6.926;2023-03-07T12:49:18;6.30;99.90
1165;DHT22;571;50.930;6.926;2023-03-07T12:51:53;6.10;99.90
1165;DHT22;571;50.930;6.926;2023-03-07T12:54:22;6.00;99.90
1165;DHT22;571;50.930;6.926;2023-03-07T12:56:54;5.90;99.90
1165;DHT22;571;50.930;6.926;2023-03-07T12:59:23;5.80;99.90
1165;DHT22;571;50.930;6.926;2023-03-07T13:01:54;5.90;99.90
1165;DHT22;571;50.930;6.926;2023-03-07T13:04:27;6.00;99.90
1165;DHT22;571;50.930;6.926;2023-03-07T13:07:05;5.80;99.90
1165;DHT22;571;50.930;6.926;2023-03-07T13:09:32;5.80;99.90
1165;DHT22;571;50.930;6.926;2023-03-07T13:14:52;5.70;99.90
1165;DHT22;571;50.930;6.926;2023-03-07T13:17:53;5.70;99.90
1165;DHT22;571;50.930;6.926;2023-03-07T13:20:37;5.70;99.90
1165;DHT22;571;50.930;6.926;2023-03-07T13:23:24;5.80;99.90
1165;DHT22;571;50.930;6.926;2023-03-07T13:26:04;5.70;99.90
1165;DHT22;571;50.930;6.926;2023-03-07T13:28:37;5.80;99.90
1165;DHT22;571;50.930;6.926;2023-03-07T13:31:21;5.80;99.90
1165;DHT22;571;50.930;6.926;2023-03-07T13:33:51;5.60;99.90
1165;DHT22;571;50.930;6.926;2023-03-07T13:36:32;5.50;99.90
1165;DHT22;571;50.930;6.926;2023-03-07T13:39:01;5.60;99.90
1165;DHT22;571;50.930;6.926;2023-03-07T13:41:46;5.40;99.90
1165;DHT22;571;50.930;6.926;2023-03-07T13:44:27;5.50;99.90
1165;DHT22;571;50.930;6.926;2023-03-07T13:46:54;5.60;99.90
1165;DHT22;571;50.930;6.926;2023-03-07T13:49:36;5.60;99.90
1165;DHT22;571;50.930;6.926;2023-03-07T13:52:38;5.40;99.90
1165;DHT22;571;50.930;6.926;2023-03-07T13:55:19;5.30;99.90
1165;DHT22;571;50.930;6.926;2023-03-07T13:57:48;5.40;99.90
1165;DHT22;571;50.930;6.926;2023-03-07T14:00:22;5.30;99.90
1165;DHT22;571;50.930;6.926;2023-03-07T14:02:50;5.30;99.90
1165;DHT22;571;50.930;6.926;2023-03-07T14:05:18;5.30;99.90
1165;DHT22;571;50.930;6.926;2023-03-07T14:07:45;5.40;99.90
1165;DHT22;571;50.930;6.926;2023-03-07T14:10:20;5.50;99.90
1165;DHT22;571;50.930;6.926;2023-03-07T14:13:16;5.40;99.90
1165;DHT22;571;50.930;6.926;2023-03-07T14:15:54;5.40;99.90
1165;DHT22;571;50.930;6.926;2023-03-07T14:18:35;5.20;99.90
1165;DHT22;571;50.930;6.926;2023-03-07T14:21:10;5.00;99.90
1165;DHT22;571;50.930;6.926;2023-03-07T14:26:50;5.20;99.90
1165;DHT22;571;50.930;6.926;2023-03-07T14:29:21;5.10;99.90
1165;DHT22;571;50.930;6.926;2023-03-07T14:31:49;5.00;99.90
1165;DHT22;571;50.930;6.926;2023-03-07T14:34:25;5.00;99.90
1165;DHT22;571;50.930;6.926;2023-03-07T14:36:54;4.80;99.90
1165;DHT22;571;50.930;6.926;2023-03-07T14:39:22;4.60;99.90
1165;DHT22;571;50.930;6.926;2023-03-07T14:41:57;4.40;99.90
1165;DHT22;571;50.930;6.926;2023-03-07T14:44:52;4.30;99.90
1165;DHT22;571;50.930;6.926;2023-03-07T14:47:41;4.30;99.90
1165;DHT22;571;50.930;6.926;2023-03-07T14:50:14;4.10;99.90
1165;DHT22;571;50.930;6.926;2023-03-07T14:52:42;4.10;99.90
1165;DHT22;571;50.930;6.926;2023-03-07T14:55:17;4.00;99.90
1165;DHT22;571;50.930;6.926;2023-03-07T14:57:47;4.10;99.90
1165;DHT22;571;50.930;6.926;2023-03-07T15:00:25;4.40;99.90
1165;DHT22;571;50.930;6.926;2023-03-07T15:02:58;4.20;99.90
1165;DHT22;571;50.930;6.926;2023-03-07T15:05:29;4.00;99.90
1165;DHT22;571;50.930;6.926;2023-03-07T15:07:56;3.90;99.90
1165;DHT22;571;50.930;6.926;2023-03-07T15:10:25;3.80;99.90
1165;DHT22;571;50.930;6.926;2023-03-07T15:12:55;3.70;99.90
1165;DHT22;571;50.930;6.926;2023-03-07T15:15:27;3.70;99.90
1165;DHT22;571;50.930;6.926;2023-03-07T15:17:57;3.80;99.90
1165;DHT22;571;50.930;6.926;2023-03-07T15:20:26;3.90;99.90
1165;DHT22;571;50.930;6.926;2023-03-07T15:23:01;3.80;99.90
1165;DHT22;571;50.930;6.926;2023-03-07T15:25:29;3.80;99.90
1165;DHT22;571;50.930;6.926;2023-03-07T15:28:00;3.90;99.90
1165;DHT22;571;50.930;6.926;2023-03-07T15:30:31;3.90;99.90
1165;DHT22;571;50.930;6.926;2023-03-07T15:33:11;3.80;99.90
1165;DHT22;571;50.930;6.926;2023-03-07T15:35:40;3.70;99.90
1165;DHT22;571;50.930;6.926;2023-03-07T15:38:13;3.70;99.90
1165;DHT22;571;50.930;6.926;2023-03-07T15:40:41;3.60;99.90
1165;DHT22;571;50.930;6.926;2023-03-07T15:43:23;3.50;99.90
1165;DHT22;571;50.930;6.926;2023-03-07T15:46:02;3.50;99.90
1165;DHT22;571;50.930;6.926;2023-03-07T15:48:36;3.70;99.90
1165;DHT22;571;50.930;6.926;2023-03-07T15:51:05;3.90;99.90
1165;DHT22;571;50.930;6.926;2023-03-07T15:53:33;3.90;99.90
1165;DHT22;571;50.930;6.926;2023-03-07T15:56:04;4.20;99.90
1165;DHT22;571;50.930;6.926;2023-03-07T15:58:34;4.10;99.90
1165;DHT22;571;50.930;6.926;2023-03-07T16:01:04;4.20;99.90
1165;DHT22;571;50.930;6.926;2023-03-07T16:03:31;4.00;99.90
1165;DHT22;571;50.930;6.926;2023-03-07T16:06:00;3.80;99.90
1165;DHT22;571;50.930;6.926;2023-03-07T16:08:27;3.80;99.90
1165;DHT22;571;50.930;6.926;2023-03-07T16:10:57;4.00;99.90
1165;DHT22;571;50.930;6.926;2023-03-07T16:13:28;4.00;99.90
1165;DHT22;571;50.930;6.926;2023-03-07T16:16:01;3.80;99.90
1165;DHT22;571;50.930;6.926;2023-03-07T16:18:29;3.60;99.90
1165;DHT22;571;50.930;6.926;2023-03-07T16:20:56;3.80;99.90
1165;DHT22;571;50.930;6.926;2023-03-07T16:23:23;4.00;99.90
1165;DHT22;571;50.930;6.926;2023-03-07T16:25:51;4.10;99.90
1165;DHT22;571;50.930;6.926;2023-03-07T16:28:18;4.20;99.90
1165;DHT22;571;50.930;6.926;2023-03-07T16:30:45;4.30;99.90
1165;DHT22;571;50.930;6.926;2023-03-07T16:33:13;4.10;99.90
1165;DHT22;571;50.930;6.926;2023-03-07T16:35:41;4.00;99.90
1165;DHT22;571;50.930;6.926;2023-03-07T16:38:08;4.00;99.90
1165;DHT22;571;50.930;6.926;2023-03-07T16:40:39;3.80;99.90
1165;DHT22;571;50.930;6.926;2023-03-07T16:46:10;3.70;99.90
1165;DHT22;571;50.930;6.926;2023-03-07T16:48:39;3.50;99.90
1165;DHT22;571;50.930;6.926;2023-03-07T16:51:11;3.40;99.90
1165;DHT22;571;50.930;6.926;2023-03-07T16:53:41;3.40;99.90
1165;DHT22;571;50.930;6.926;2023-03-07T16:56:12;3.40;99.90
1165;DHT22;571;50.930;6.926;2023-03-07T16:58:40;3.50;99.90
1165;DHT22;571;50.930;6.926;2023-03-07T17:01:10;3.60;99.90
1165;DHT22;571;50.930;6.926;2023-03-07T17:03:39;3.70;99.90
1165;DHT22;571;50.930;6.926;2023-03-07T17:06:06;3.60;99.90
1165;DHT22;571;50.930;6.926;2023-03-07T17:08:37;3.60;99.90
1165;DHT22;571;50.930;6.926;2023-03-07T17:11:07;3.80;99.90
1165;DHT22;571;50.930;6.926;2023-03-07T17:13:36;3.80;99.90
1165;DHT22;571;50.930;6.926;2023-03-07T17:16:04;3.50;99.90
1165;DHT22;571;50.930;6.926;2023-03-07T17:18:30;3.50;99.90
1165;DHT22;571;50.930;6.926;2023-03-07T17:20:59;3.50;99.90
1165;DHT22;571;50.930;6.926;2023-03-07T17:23:26;3.30;99.90
1165;DHT22;571;50.930;6.926;2023-03-07T17:25:52;3.30;99.90
1165;DHT22;571;50.930;6.926;2023-03-07T17:28:19;3.50;99.90
1165;DHT22;571;50.930;6.926;2023-03-07T17:30:46;3.60;99.90
1165;DHT22;571;50.930;6.926;2023-03-07T17:33:14;3.50;99.90
1165;DHT22;571;50.930;6.926;2023-03-07T17:35:41;3.60;99.90
1165;DHT22;571;50.930;6.926;2023-03-07T17:38:09;3.80;99.90
1165;DHT22;571;50.930;6.926;2023-03-07T17:40:36;4.00;99.90
1165;DHT22;571;50.930;6.926;2023-03-07T17:43:03;4.10;99.90
1165;DHT22;571;50.930;6.926;2023-03-07T17:45:30;3.90;99.90
1165;DHT22;571;50.930;6.926;2023-03-07T17:47:56;3.80;99.90
1165;DHT22;571;50.930;6.926;2023-03-07T17:50:23;3.90;99.90
1165;DHT22;571;50.930;6.926;2023-03-07T17:52:51;4.20;99.90
1165;DHT22;571;50.930;6.926;2023-03-07T17:55:19;4.10;99.90
1165;DHT22;571;50.930;6.926;2023-03-07T17:57:48;4.00;99.90
1165;DHT22;571;50.930;6.926;2023-03-07T18:00:16;4.10;99.90
1165;DHT22;571;50.930;6.926;2023-03-07T18:02:42;4.00;99.90
1165;DHT22;571;50.930;6.926;2023-03-07T18:05:09;3.90;99.90
1165;DHT22;571;50.930;6.926;2023-03-07T18:07:37;4.10;99.90
1165;DHT22;571;50.930;6.926;2023-03-07T18:10:04;4.10;99.90
1165;DHT22;571;50.930;6.926;2023-03-07T18:12:33;4.10;99.90
1165;DHT22;571;50.930;6.926;2023-03-07T18:15:00;3.90;99.90
1165;DHT22;571;50.930;6.926;2023-03-07T18:17:26;3.80;99.90
1165;DHT22;571;50.930;6.926;2023-03-07T18:19:53;3.90;99.90
1165;DHT22;571;50.930;6.926;2023-03-07T18:22:20;3.90;99.90
1165;DHT22;571;50.930;6.926;2023-03-07T18:24:46;4.10;99.90
1165;DHT22;571;50.930;6.926;2023-03-07T18:27:17;4.20;99.90
1165;DHT22;571;50.930;6.926;2023-03-07T18:29:45;4.00;99.90
1165;DHT22;571;50.930;6.926;2023-03-07T18:32:12;4.00;99.90
1165;DHT22;571;50.930;6.926;2023-03-07T18:34:39;3.80;99.90
1165;DHT22;571;50.930;6.926;2023-03-07T18:37:06;3.90;99.90
1165;DHT22;571;50.930;6.926;2023-03-07T18:39:33;3.70;99.90
1165;DHT22;571;50.930;6.926;2023-03-07T18:42:00;3.70;99.90
1165;DHT22;571;50.930;6.926;2023-03-07T18:44:27;3.60;99.90
1165;DHT22;571;50.930;6.926;2023-03-07T18:46:55;3.60;99.90
1165;DHT22;571;50.930;6.926;2023-03-07T18:49:21;3.50;99.90
1165;DHT22;571;50.930;6.926;2023-03-07T18:51:48;3.60;99.90
1165;DHT22;571;50.930;6.926;2023-03-07T18:54:15;3.70;99.90
1165;DHT22;571;50.930;6.926;2023-03-07T18:56:44;3.80;99.90
1165;DHT22;571;50.930;6.926;2023-03-07T18:59:10;3.50;99.90
1165;DHT22;571;50.930;6.926;2023-03-07T19:01:37;3.50;99.90
1165;DHT22;571;50.930;6.926;2023-03-07T19:04:06;3.60;99.90
1165;DHT22;571;50.930;6.926;2023-03-07T19:06:35;3.50;99.90
1165;DHT22;571;50.930;6.926;2023-03-07T19:09:03;3.50;99.90
1165;DHT22;571;50.930;6.926;2023-03-07T19:11:34;3.70;99.90
1165;DHT22;571;50.930;6.926;2023-03-07T19:14:16;3.80;99.90
1165;DHT22;571;50.930;6.926;2023-03-07T19:16:58;3.70;99.90
1165;DHT22;571;50.930;6.926;2023-03-07T19:19:26;3.60;99.90
1165;DHT22;571;50.930;6.926;2023-03-07T19:21:53;3.60;99.90
1165;DHT22;571;50.930;6.926;2023-03-07T19:24:19;3.70;99.90
1165;DHT22;571;50.930;6.926;2023-03-07T19:26:48;3.80;99.90
1165;DHT22;571;50.930;6.926;2023-03-07T19:29:14;3.60;99.90
1165;DHT22;571;50.930;6.926;2023-03-07T19:31:41;3.60;99.90
1165;DHT22;571;50.930;6.926;2023-03-07T19:34:09;3.60;99.90
1165;DHT22;571;50.930;6.926;2023-03-07T19:36:38;3.60;99.90
1165;DHT22;571;50.930;6.926;2023-03-07T19:39:06;3.50;99.90
1165;DHT22;571;50.930;6.926;2023-03-07T19:41:45;3.60;99.90
1165;DHT22;571;50.930;6.926;2023-03-07T19:44:23;3.50;99.90
1165;DHT22;571;50.930;6.926;2023-03-07T19:46:50;3.50;99.90
1165;DHT22;571;50.930;6.926;2023-03-07T19:49:17;3.50;99.90
1165;DHT22;571;50.930;6.926;2023-03-07T19:51:46;3.40;99.90
1165;DHT22;571;50.930;6.926;2023-03-07T19:54:13;3.40;99.90
1165;DHT22;571;50.930;6.926;2023-03-07T19:56:40;3.50;99.90
1165;DHT22;571;50.930;6.926;2023-03-07T19:59:10;3.50;99.90
1165;DHT22;571;50.930;6.926;2023-03-07T20:01:37;3.40;99.90
1165;DHT22;571;50.930;6.926;2023-03-07T20:04:04;3.40;99.90
1165;DHT22;571;50.930;6.926;2023-03-07T20:06:32;3.30;99.90
1165;DHT22;571;50.930;6.926;2023-03-07T20:09:01;3.20;99.90
1165;DHT22;571;50.930;6.926;2023-03-07T20:11:29;3.30;99.90
1165;DHT22;571;50.930;6.926;2023-03-07T20:13:58;3.30;99.90
1165;DHT22;571;50.930;6.926;2023-03-07T20:16:26;3.20;99.90
1165;DHT22;571;50.930;6.926;2023-03-07T20:18:55;3.20;99.90
1165;DHT22;571;50.930;6.926;2023-03-07T20:21:22;3.20;99.90
1165;DHT22;571;50.930;6.926;2023-03-07T20:23:49;3.10;99.90
1165;DHT22;571;50.930;6.926;2023-03-07T20:26:20;3.10;99.90
1165;DHT22;571;50.930;6.926;2023-03-07T20:28:48;3.10;99.90
1165;DHT22;571;50.930;6.926;2023-03-07T20:31:15;3.10;99.90
1165;DHT22;571;50.930;6.926;2023-03-07T20:33:44;3.10;99.90
1165;DHT22;571;50.930;6.926;2023-03-07T20:36:19;2.80;99.90
1165;DHT22;571;50.930;6.926;2023-03-07T20:38:47;2.70;99.90
1165;DHT22;571;50.930;6.926;2023-03-07T20:41:15;2.70;99.90
1165;DHT22;571;50.930;6.926;2023-03-07T20:43:45;2.70;99.90
1165;DHT22;571;50.930;6.926;2023-03-07T20:46:14;2.70;99.90
1165;DHT22;571;50.930;6.926;2023-03-07T20:48:42;2.70;99.90
1165;DHT22;571;50.930;6.926;2023-03-07T20:51:11;2.80;99.90
1165;DHT22;571;50.930;6.926;2023-03-07T20:53:42;2.90;99.90